Oak Island, MN (56741)

2:21 PM CST on February 10, 2016 (GMT -0600)
Flag Island Lighthouse | | Change Station
CLOSE
Current Station
Personal Weather Station
Location: Minnesota, MN
Elevation: 1086 ft
Nearby Weather Stations

Elev 1086 ft 49.32 °N, 94.88 °W | Updated 17 seconds ago

Clear
Clear
0.0 °F
Feels Like 0 °F
N
0.4
Wind Variable Wind from West
Gusts 2.5 mph

Today
High -- | Low -- °F
--% Chance of Precip.
Yesterday
High -- | Low -- °F
Precip. -- in
Pressure 30.19 in
Visibility 10.0 miles
Clouds Clear
Windchill 0 °F
Dew Point -20 °F
Humidity 38%
Rainfall 0.00 in
Snow Depth Not available.
7:37 AM 5:30 PM
Waxing Crescent, 7% visible
METAR KFGN 102011Z AUTO 01004KT 10SM CLR M19/M24 A3019 RMK AO2
Pressure 30.19 in
Visibility 10.0 miles
Clouds Clear
Windchill 0 °F
Dew Point -20 °F
Humidity 38%
Rainfall 0.00 in
Snow Depth Not available.
7:37 AM 5:30 PM
Waxing Crescent, 7% visible
METAR KFGN 102011Z AUTO 01004KT 10SM CLR M19/M24 A3019 RMK AO2

10-Day Weather Forecast

Almanac

Astronomy

Feb. 10, 2016 Rise Set
Actual Time
Civil Twilight
Nautical Twilight
Astronomical Twilight
Moon
Length of Visible Light
Length of Day
Tomorrow will be .
, % of the Moon is Illuminated

Today's Extremes

State Highs State Lows

Community

WunderPhotos

Upload Photos

1,891,942 photos uploaded!

WunderBlog® & News

Nearby

Air Quality

  Air Quality AQ Index Pollutant
Not available.

Snow Depth

Station Depth Elevation

Earthquake Activity

City Distance Mag. Time & Date
Minimum magnitude displayed is 2.5.

Coastal Water Temperatures

Place Temperature

Stations

Nearby Weather Stations

Station Location Temp. Windchill Dew Point Humidity Wind Precip. Elev Updated Type
                   

Watches & Warnings

There are currently no watches in effect.